Kissimmee Gateway Airport
KISM : now visible

Airfield :











YOU CAN JOIN US ON...

 
LOGIN :

Register | Disclaimer

   EN    FR    IT 

 









Legend :    VFR   Marginal VFR   IFR   Intensive IFR   Very Intensive IFR
Visi :
Ceiling :
>= 8 km
>= 3000ft
5 to 8 km
1000 to 3000 ft
1500m to 5 km
500 to 1000 ft
800 to 1500m
200 to 500 ft
< 800m
< 200 ft
Symbols :   Thunderstorms  Fog  Heavy snow  Heavy precipitations  Wind > 20 kt






- Airport Elevation : 82 ft


KISM - Kissimmee Gateway

CURRENT METAR :
  • 242156Z 24006KT 10SM FEW038 SCT050 24/17 A3000 RMK AO2 SLP158 T02390167

EXPIRED METARs :
  • 242056Z 23004KT 10SM FEW036 BKN050 BKN080 24/17 A3000 RMK AO2 SLP158 T02390167 56015
  • 241956Z 16006KT 10SM SCT028 24/17 A3001 RMK AO2 SLP161 T02390172

TAF KISM
Valid from the 24 at 18:00 until the 25 at 18:00 UTC


241740Z 2418/2518 19008KT P6SM FEW025 SCT040 BKN250
FM250000 21006KT P6SM SCT045 BKN060
FM250600 26005KT P6SM FEW012 SCT020 SCT050
FM250900 29006KT P6SM FEW009 SCT012 SCT250
FM251400 32009KT P6SM SKC



MET'MAP, your aeronautical weather chart ! - Copyright ORBIFLY December 2007 - Disclaimer

ORBIFLY MET'MAP TEAM :

Programming & Development : Alexandra Zaïnal
Concept & original design : Baudouin d'Aumeries
Assistance for programming : Marc-Olivier Méhu
Technical & hardware support : Manuel Goepfert

Contact : metmap@orbifly.com




SOURCES & CREDITS :

   NOAA       Earth
Advisory